createdAt,value
2023-05-05T00:01:30.818Z,101105.16
2023-05-05T00:04:00.385Z,101107.88
2023-05-05T00:06:31.420Z,101107.66
2023-05-05T00:09:03.513Z,101104.47
2023-05-05T00:11:33.009Z,101110.06
2023-05-05T00:14:02.511Z,101101.13
2023-05-05T00:16:32.086Z,101101.13
2023-05-05T00:19:02.467Z,101098.97
2023-05-05T00:21:31.962Z,101099.56
2023-05-05T00:24:04.030Z,101097.63
2023-05-05T00:26:33.501Z,101096.97
2023-05-05T00:29:03.572Z,101090.81
2023-05-05T00:31:33.142Z,101101.97
2023-05-05T00:34:02.726Z,101098.66
2023-05-05T00:36:32.293Z,101092.13
2023-05-05T00:39:04.602Z,101087.16
2023-05-05T00:41:34.065Z,101082.38
2023-05-05T00:44:03.573Z,101087.66
2023-05-05T00:46:36.612Z,101082.69
2023-05-05T00:49:06.354Z,101072.78
2023-05-05T00:51:35.972Z,101075.69
2023-05-05T00:54:08.807Z,101075.69
2023-05-05T00:56:38.833Z,101070.38
2023-05-05T00:59:08.321Z,101068.22
2023-05-05T01:01:37.872Z,101069.47
2023-05-05T01:04:07.573Z,101071.16
2023-05-05T01:06:48.840Z,101065.72
2023-05-05T01:09:31.403Z,101060.59
2023-05-05T01:12:12.753Z,101057.75
2023-05-05T01:14:43.872Z,101051.69
2023-05-05T01:17:19.873Z,101050.25
2023-05-05T01:20:01.656Z,101046.72
2023-05-05T01:22:38.993Z,101044.88
2023-05-05T01:25:31.114Z,101041.59
2023-05-05T01:28:17.062Z,101044.06
2023-05-05T01:31:05.995Z,101041.72
2023-05-05T01:33:45.742Z,101046.00
2023-05-05T01:36:33.063Z,101045.91
2023-05-05T01:39:04.999Z,101046.75
2023-05-05T01:41:41.236Z,101046.75
2023-05-05T01:44:13.277Z,101053.13
2023-05-05T01:46:42.871Z,101047.41
2023-05-05T01:49:16.786Z,101034.97
2023-05-05T01:51:49.885Z,101035.91
2023-05-05T01:54:21.523Z,101041.16
2023-05-05T01:56:52.847Z,101033.19
2023-05-05T01:59:23.589Z,101027.22
2023-05-05T02:01:53.533Z,101040.41
2023-05-05T02:04:26.959Z,101026.94
2023-05-05T02:06:58.779Z,101029.00
2023-05-05T02:09:31.130Z,101023.69
2023-05-05T02:12:02.438Z,101031.34
2023-05-05T02:14:32.555Z,101024.53
2023-05-05T02:17:02.472Z,101033.50
2023-05-05T02:19:39.078Z,101032.22
2023-05-05T02:22:08.874Z,101022.75
2023-05-05T02:24:38.565Z,101021.91
2023-05-05T02:27:10.180Z,101022.16
2023-05-05T02:29:50.440Z,101014.69
2023-05-05T02:32:23.241Z,101016.09
2023-05-05T02:34:57.490Z,101023.41
2023-05-05T02:37:32.633Z,101022.03
2023-05-05T02:40:05.935Z,101018.47
2023-05-05T02:42:39.964Z,101012.66
2023-05-05T02:45:15.670Z,101014.53
2023-05-05T02:47:48.448Z,101013.88
2023-05-05T02:50:21.437Z,101005.66
2023-05-05T02:52:59.720Z,101007.91
2023-05-05T02:55:36.295Z,101017.72
2023-05-05T02:58:09.412Z,101012.09
2023-05-05T03:00:50.008Z,101015.38
2023-05-05T03:03:29.962Z,101013.41
2023-05-05T03:06:14.418Z,101010.72
2023-05-05T03:08:49.236Z,101007.16
2023-05-05T03:11:25.769Z,101008.19
2023-05-05T03:14:03.917Z,101008.38
2023-05-05T03:16:37.465Z,100995.91
2023-05-05T03:19:09.809Z,101011.00
2023-05-05T03:21:42.869Z,101003.50
2023-05-05T03:24:17.475Z,101000.69
2023-05-05T03:26:53.600Z,101007.13
2023-05-05T03:29:26.916Z,101015.34
2023-05-05T03:31:56.644Z,101011.31
2023-05-05T03:34:27.448Z,101010.97
2023-05-05T03:36:59.709Z,101012.09
2023-05-05T03:39:29.154Z,101009.75
2023-05-05T03:41:59.337Z,101009.94
2023-05-05T03:44:32.403Z,101004.41
2023-05-05T03:47:02.104Z,101008.31
2023-05-05T03:49:34.199Z,101004.50
2023-05-05T03:52:06.415Z,101002.88
2023-05-05T03:54:36.047Z,100995.34
2023-05-05T03:57:05.594Z,100996.88
2023-05-05T03:59:35.087Z,100987.63
2023-05-05T04:02:04.676Z,100991.00
2023-05-05T04:04:34.562Z,100997.09
2023-05-05T04:07:06.876Z,100991.31
2023-05-05T04:09:36.391Z,101004.53
2023-05-05T04:12:06.232Z,101001.47
2023-05-05T04:14:35.980Z,101000.16
2023-05-05T04:17:06.385Z,101002.50
2023-05-05T04:19:36.716Z,101008.09
2023-05-05T04:22:09.252Z,101019.13
2023-05-05T04:24:38.791Z,101028.34
2023-05-05T04:27:08.280Z,101017.03
2023-05-05T04:29:37.908Z,101017.03
2023-05-05T04:32:08.170Z,101019.63
2023-05-05T04:34:37.775Z,101006.81
2023-05-05T04:37:10.162Z,100998.25
2023-05-05T04:39:39.652Z,100992.38
2023-05-05T04:42:09.095Z,100978.53
2023-05-05T04:44:39.493Z,100992.06
2023-05-05T04:47:09.122Z,101002.19
2023-05-05T04:49:39.424Z,101003.59
2023-05-05T04:52:14.737Z,101011.03
2023-05-05T04:54:44.326Z,101011.72
2023-05-05T04:57:13.771Z,101018.44
2023-05-05T04:59:44.405Z,101012.84
2023-05-05T05:02:13.935Z,101005.56
2023-05-05T05:04:43.568Z,101006.84
2023-05-05T05:07:17.203Z,101000.50
2023-05-05T05:09:46.648Z,100996.75
2023-05-05T05:12:16.215Z,100989.97
2023-05-05T05:14:45.704Z,100982.09
2023-05-05T05:17:15.279Z,100989.59
2023-05-05T05:19:45.529Z,100992.56
2023-05-05T05:22:17.745Z,100995.41
2023-05-05T05:24:47.288Z,101000.66
2023-05-05T05:27:17.230Z,100998.31
2023-05-05T05:29:49.099Z,100986.06
2023-05-05T05:32:18.731Z,100987.91
2023-05-05T05:34:48.356Z,100994.66
2023-05-05T05:37:21.445Z,100980.94
2023-05-05T05:39:54.380Z,100985.69
2023-05-05T05:42:26.000Z,101008.31
2023-05-05T05:44:57.119Z,101021.53
2023-05-05T05:47:26.750Z,101018.13
2023-05-05T05:49:56.650Z,101018.97
2023-05-05T05:52:28.846Z,101023.50
2023-05-05T05:54:58.462Z,101017.22
2023-05-05T05:57:27.977Z,101016.38
2023-05-05T05:59:59.700Z,101016.19
2023-05-05T06:02:30.763Z,101015.63
2023-05-05T06:05:00.260Z,101018.53
2023-05-05T06:07:32.443Z,101018.91
2023-05-05T06:10:14.535Z,101008.91
2023-05-05T06:12:51.431Z,101004.44
2023-05-05T06:15:21.339Z,101016.94
2023-05-05T06:17:51.305Z,101013.97
2023-05-05T06:20:21.019Z,101020.97
2023-05-05T06:22:53.153Z,101023.69
2023-05-05T06:25:22.895Z,101024.34
2023-05-05T06:27:53.666Z,101017.34
2023-05-05T06:30:23.092Z,101018.47
2023-05-05T06:32:54.430Z,101022.56
2023-05-05T06:35:24.805Z,101024.44
2023-05-05T06:37:56.824Z,101024.25
2023-05-05T06:40:26.373Z,101012.84
2023-05-05T06:42:55.852Z,101017.03
2023-05-05T06:45:31.312Z,101010.94
2023-05-05T06:48:00.777Z,101010.69
2023-05-05T06:50:30.158Z,101015.94
2023-05-05T06:53:02.203Z,101003.19
2023-05-05T06:55:31.717Z,101000.47
2023-05-05T06:58:01.146Z,100996.63
2023-05-05T07:00:31.016Z,100997.84
2023-05-05T07:03:00.570Z,101001.59
2023-05-05T07:05:30.069Z,101002.72
2023-05-05T07:08:02.451Z,101018.16
2023-05-05T07:10:31.999Z,101020.94
2023-05-05T07:13:01.476Z,101008.28
2023-05-05T07:15:31.140Z,101019.72
2023-05-05T07:18:00.694Z,101019.91
2023-05-05T07:20:30.371Z,101019.50
2023-05-05T07:23:02.380Z,101007.09
2023-05-05T07:25:31.822Z,101005.84
2023-05-05T07:28:01.646Z,101000.69
2023-05-05T07:30:31.207Z,101006.19
2023-05-05T07:33:00.747Z,101007.66
2023-05-05T07:35:30.570Z,101022.56
2023-05-05T07:38:02.676Z,101008.84
2023-05-05T07:40:33.899Z,101016.88
2023-05-05T07:43:03.404Z,101006.97
2023-05-05T07:45:32.877Z,101001.28
2023-05-05T07:48:02.336Z,101005.63
2023-05-05T07:50:31.828Z,101005.72
2023-05-05T07:53:13.896Z,101020.47
2023-05-05T07:55:44.474Z,101016.47
2023-05-05T07:58:13.902Z,101026.88
2023-05-05T08:00:43.939Z,101041.75
2023-05-05T08:03:13.481Z,101044.72
2023-05-05T08:05:43.147Z,101058.28
2023-05-05T08:08:15.572Z,101065.97
2023-05-05T08:10:45.054Z,101066.66
2023-05-05T08:13:14.582Z,101061.66
2023-05-05T08:15:45.238Z,101059.66
2023-05-05T08:18:14.750Z,101063.88
2023-05-05T08:20:44.493Z,101071.63
2023-05-05T08:23:17.034Z,101074.13
2023-05-05T08:25:46.923Z,101077.31
2023-05-05T08:28:16.378Z,101088.47
2023-05-05T08:30:45.832Z,101087.22
2023-05-05T08:33:15.286Z,101102.09
2023-05-05T08:35:45.073Z,101102.09
2023-05-05T08:38:17.292Z,101095.63
2023-05-05T08:40:46.756Z,101088.94
2023-05-05T08:43:16.422Z,101081.69
2023-05-05T08:45:46.314Z,101069.88
2023-05-05T08:48:15.986Z,101072.22
2023-05-05T08:50:50.354Z,101075.44
2023-05-05T08:53:34.518Z,101068.53
2023-05-05T08:56:06.877Z,101066.19
2023-05-05T08:58:39.895Z,101062.69
2023-05-05T09:01:10.367Z,101054.13
2023-05-05T09:03:41.248Z,101044.59
2023-05-05T09:06:11.624Z,101038.75
2023-05-05T09:08:43.896Z,101037.53
2023-05-05T09:11:13.300Z,101039.41
2023-05-05T09:13:43.679Z,101041.09
2023-05-05T09:16:13.136Z,101036.13
2023-05-05T09:18:43.218Z,101035.78
2023-05-05T09:21:24.792Z,101041.06
2023-05-05T09:24:20.603Z,101034.09
2023-05-05T09:26:50.753Z,101042.56
2023-05-05T09:29:21.436Z,101040.91
2023-05-05T09:32:08.481Z,101039.22
2023-05-05T09:34:38.474Z,101044.88
2023-05-05T09:37:08.021Z,101039.25
2023-05-05T09:39:40.148Z,101044.94
2023-05-05T09:42:09.609Z,101056.25
2023-05-05T09:44:41.270Z,101053.94
2023-05-05T09:47:26.092Z,101068.03
2023-05-05T09:50:02.699Z,101075.78
2023-05-05T09:52:32.544Z,101070.78
2023-05-05T09:55:04.685Z,101064.50
2023-05-05T09:57:36.232Z,101069.09
2023-05-05T10:00:06.723Z,101061.13
2023-05-05T10:02:37.871Z,101061.81
2023-05-05T10:05:09.324Z,101065.81
2023-05-05T10:07:39.749Z,101062.06
2023-05-05T10:10:13.618Z,101057.44
2023-05-05T10:12:43.452Z,101059.75
2023-05-05T10:15:14.209Z,101059.38
2023-05-05T10:20:22.027Z,101049.28
2023-05-05T10:22:55.223Z,101045.50
2023-05-05T10:25:31.976Z,101049.50
2023-05-05T10:28:03.718Z,101039.84
2023-05-05T10:30:34.476Z,101040.28
2023-05-05T10:35:44.116Z,101020.78
2023-05-05T10:38:16.044Z,101032.75
2023-05-05T10:40:49.727Z,101038.88
2023-05-05T10:43:20.470Z,101026.28
2023-05-05T10:45:50.834Z,101034.44
2023-05-05T10:48:27.953Z,101024.16
2023-05-05T10:51:04.316Z,101030.00
2023-05-05T10:53:39.262Z,101019.06
2023-05-05T10:56:16.745Z,101023.25
2023-05-05T10:58:59.115Z,101016.13
2023-05-05T11:01:35.186Z,101019.47
2023-05-05T11:04:19.764Z,101018.19
2023-05-05T11:07:19.170Z,101015.47
2023-05-05T11:10:01.594Z,101021.09
2023-05-05T11:12:37.275Z,101017.94
2023-05-05T11:15:38.069Z,101012.69
2023-05-05T11:18:09.175Z,101008.25
2023-05-05T11:21:04.105Z,101013.69
2023-05-05T11:23:33.815Z,101017.91
2023-05-05T11:26:04.298Z,101006.56
2023-05-05T11:28:37.194Z,101000.06
2023-05-05T11:31:22.698Z,100996.88
2023-05-05T11:33:53.043Z,100993.31
2023-05-05T11:36:23.904Z,101000.03
2023-05-05T11:39:06.802Z,101001.91
2023-05-05T11:42:10.208Z,101005.91
2023-05-05T11:44:43.963Z,100995.16
2023-05-05T11:47:32.428Z,100993.72
2023-05-05T11:50:19.915Z,101004.63
2023-05-05T11:52:50.426Z,101001.50
2023-05-05T11:55:24.832Z,101003.53
2023-05-05T11:57:54.885Z,101002.06
2023-05-05T12:00:37.091Z,101002.59
2023-05-05T12:03:07.561Z,100997.97
2023-05-05T12:05:37.366Z,100995.81
2023-05-05T12:08:07.573Z,101010.31
2023-05-05T12:10:37.388Z,100997.97
2023-05-05T12:13:06.980Z,100997.81
2023-05-05T12:15:39.195Z,100989.09
2023-05-05T12:18:08.866Z,100983.88
2023-05-05T12:20:38.430Z,100992.47
2023-05-05T12:23:08.658Z,100989.94
2023-05-05T12:25:39.591Z,100997.91
2023-05-05T12:28:10.094Z,100988.78
2023-05-05T12:30:42.178Z,100994.06
2023-05-05T12:33:11.671Z,100999.28
2023-05-05T12:35:41.610Z,100994.31
2023-05-05T12:38:11.572Z,100987.69
2023-05-05T12:40:48.847Z,100990.81
2023-05-05T12:43:32.641Z,100990.41
2023-05-05T12:46:10.719Z,100990.88
2023-05-05T12:48:46.408Z,100986.44
2023-05-05T12:51:20.116Z,100983.50
2023-05-05T12:54:05.299Z,100985.59
2023-05-05T12:56:36.270Z,100985.31
2023-05-05T12:59:07.754Z,100973.28
2023-05-05T13:01:51.060Z,100981.47
2023-05-05T13:04:21.558Z,100980.97
2023-05-05T13:06:54.550Z,100975.91
2023-05-05T13:09:27.994Z,100972.19
2023-05-05T13:11:58.063Z,100978.91
2023-05-05T13:14:27.633Z,100970.38
2023-05-05T13:16:59.754Z,100971.06
2023-05-05T13:19:29.525Z,100954.47
2023-05-05T13:22:00.271Z,100944.50
2023-05-05T13:24:42.769Z,100951.00
2023-05-05T13:27:20.162Z,100945.28
2023-05-05T13:29:49.952Z,100946.06
2023-05-05T13:32:22.285Z,100939.94
2023-05-05T13:34:52.068Z,100939.50
2023-05-05T13:37:21.794Z,100928.31
2023-05-05T13:39:51.539Z,100924.69
2023-05-05T13:42:21.013Z,100927.78
2023-05-05T13:44:50.552Z,100930.13
2023-05-05T13:47:22.766Z,100919.34
2023-05-05T13:49:52.360Z,100910.06
2023-05-05T13:52:21.900Z,100912.13
2023-05-05T13:54:51.509Z,100907.66
2023-05-05T13:57:21.084Z,100908.72
2023-05-05T13:59:50.766Z,100902.56
2023-05-05T14:02:22.906Z,100900.03
2023-05-05T14:04:52.394Z,100891.16
2023-05-05T14:07:22.012Z,100883.09
2023-05-05T14:09:51.455Z,100882.97
2023-05-05T14:12:20.925Z,100877.03
2023-05-05T14:14:50.396Z,100873.19
2023-05-05T14:17:22.461Z,100876.78
2023-05-05T14:19:51.940Z,100868.19
2023-05-05T14:22:21.447Z,100866.94
2023-05-05T14:24:50.944Z,100858.44
2023-05-05T14:27:20.460Z,100848.72
2023-05-05T14:29:50.076Z,100847.41
2023-05-05T14:32:23.179Z,100844.88
2023-05-05T14:34:52.782Z,100844.66
2023-05-05T14:37:22.251Z,100846.19
2023-05-05T14:39:51.879Z,100852.97
2023-05-05T14:42:21.385Z,100850.22
2023-05-05T14:44:51.016Z,100849.63
2023-05-05T14:47:23.114Z,100846.16
2023-05-05T14:49:52.625Z,100850.56
2023-05-05T14:52:22.158Z,100847.00
2023-05-05T14:54:51.662Z,100855.66
2023-05-05T14:57:21.303Z,100855.53
2023-05-05T14:59:52.134Z,100850.16
2023-05-05T15:02:24.237Z,100844.22
2023-05-05T15:04:53.804Z,100843.13
2023-05-05T15:07:28.505Z,100839.19
2023-05-05T15:09:58.688Z,100844.25
2023-05-05T15:12:28.680Z,100840.53
2023-05-05T15:14:58.166Z,100839.13
2023-05-05T15:17:30.893Z,100828.84
2023-05-05T15:20:00.549Z,100837.38
2023-05-05T15:22:30.018Z,100845.78
2023-05-05T15:24:59.851Z,100840.63
2023-05-05T15:27:30.342Z,100847.41
2023-05-05T15:29:59.824Z,100852.25
2023-05-05T15:32:31.896Z,100848.94
2023-05-05T15:35:01.564Z,100842.88
2023-05-05T15:37:31.662Z,100847.72
2023-05-05T15:40:01.402Z,100844.38
2023-05-05T15:42:30.901Z,100844.38
2023-05-05T15:45:01.859Z,100850.44
2023-05-05T15:47:33.931Z,100854.75
2023-05-05T15:50:03.448Z,100853.06
2023-05-05T15:52:32.909Z,100866.97
2023-05-05T15:55:02.424Z,100867.88
2023-05-05T15:57:32.141Z,100870.41
2023-05-05T16:00:01.709Z,100879.06
2023-05-05T16:02:33.854Z,100886.22
2023-05-05T16:05:03.499Z,100892.16
2023-05-05T16:07:33.034Z,100893.66
2023-05-05T16:10:02.554Z,100899.00
2023-05-05T16:12:32.417Z,100892.06
2023-05-05T16:15:01.958Z,100902.03
2023-05-05T16:17:34.085Z,100913.03
2023-05-05T16:20:04.013Z,100916.47
2023-05-05T16:22:33.529Z,100916.25
2023-05-05T16:25:03.089Z,100931.22
2023-05-05T16:27:32.570Z,100936.94
2023-05-05T16:30:02.116Z,100937.84
2023-05-05T16:32:34.254Z,100937.03
2023-05-05T16:35:03.953Z,100940.69
2023-05-05T16:37:33.459Z,100943.00
2023-05-05T16:40:05.613Z,100937.16
2023-05-05T16:42:35.137Z,100940.97
2023-05-05T16:45:04.849Z,100939.94
2023-05-05T16:47:37.533Z,100936.59
2023-05-05T16:50:08.450Z,100938.72
2023-05-05T16:52:37.964Z,100930.28
2023-05-05T16:55:08.408Z,100922.59
2023-05-05T16:57:38.143Z,100917.97
2023-05-05T17:00:09.567Z,100909.19
2023-05-05T17:02:41.671Z,100910.94
2023-05-05T17:05:12.588Z,100907.56
2023-05-05T17:07:42.382Z,100923.44
2023-05-05T17:10:12.848Z,100928.91
2023-05-05T17:12:42.368Z,100928.91
2023-05-05T17:15:12.580Z,100935.44
2023-05-05T17:17:44.673Z,100940.94
2023-05-05T17:20:14.966Z,100947.28
2023-05-05T17:22:46.595Z,100950.00
2023-05-05T17:25:16.108Z,100961.81
2023-05-05T17:27:45.631Z,100966.59
2023-05-05T17:30:16.163Z,100966.00
2023-05-05T17:32:48.288Z,100971.28
2023-05-05T17:35:17.995Z,100962.88
2023-05-05T17:37:47.569Z,100968.16
2023-05-05T17:40:17.146Z,100962.03
2023-05-05T17:42:46.664Z,100964.81
2023-05-05T17:45:16.141Z,100967.56
2023-05-05T17:47:48.234Z,100959.56
2023-05-05T17:50:17.715Z,100962.53
2023-05-05T17:52:47.236Z,100955.38
2023-05-05T17:55:16.701Z,100964.63
2023-05-05T17:57:47.462Z,100963.59
2023-05-05T18:00:18.390Z,100955.44
2023-05-05T18:02:50.454Z,100954.59
2023-05-05T18:05:19.994Z,100949.53
2023-05-05T18:07:49.417Z,100950.38
2023-05-05T18:10:18.969Z,100954.81
2023-05-05T18:12:48.639Z,100947.06
2023-05-05T18:15:18.123Z,100951.88
2023-05-05T18:17:50.144Z,100950.44
2023-05-05T18:20:19.666Z,100947.94
2023-05-05T18:22:49.389Z,100944.78
2023-05-05T18:25:19.205Z,100948.97
2023-05-05T18:27:48.680Z,100951.94
2023-05-05T18:30:19.363Z,100954.03
2023-05-05T18:32:51.518Z,100954.44
2023-05-05T18:35:21.526Z,100956.81
2023-05-05T18:37:50.957Z,100961.59
2023-05-05T18:40:20.609Z,100966.03
2023-05-05T18:42:50.152Z,100969.38
2023-05-05T18:45:19.644Z,100961.84
2023-05-05T18:47:51.739Z,100966.03
2023-05-05T18:50:21.522Z,100960.59
2023-05-05T18:52:50.994Z,100977.38
2023-05-05T18:55:20.552Z,100975.50
2023-05-05T18:57:50.239Z,100978.84
2023-05-05T19:00:20.943Z,100973.81
2023-05-05T19:02:52.991Z,100985.97
2023-05-05T19:05:22.540Z,100988.09
2023-05-05T19:07:52.021Z,100993.97
2023-05-05T19:10:21.502Z,100990.81
2023-05-05T19:12:51.018Z,100997.53
2023-05-05T19:15:21.002Z,100993.97
2023-05-05T19:17:53.074Z,101002.16
2023-05-05T19:20:22.853Z,101009.25
2023-05-05T19:22:52.278Z,101013.69
2023-05-05T19:25:21.870Z,101016.22
2023-05-05T19:27:51.343Z,101011.19
2023-05-05T19:30:20.761Z,101012.41
2023-05-05T19:32:52.823Z,101006.97
2023-05-05T19:35:22.434Z,101008.03
2023-05-05T19:37:51.963Z,101001.31
2023-05-05T19:40:21.427Z,101004.88
2023-05-05T19:42:50.929Z,101003.19
2023-05-05T19:45:21.202Z,101001.13
2023-05-05T19:47:53.338Z,101004.69
2023-05-05T19:50:22.999Z,101003.84
2023-05-05T19:52:52.699Z,100999.22
2023-05-05T19:55:22.208Z,100998.13
2023-05-05T19:57:51.662Z,101002.53
2023-05-05T20:00:21.741Z,101004.22
2023-05-05T20:02:53.819Z,100993.75
2023-05-05T20:05:23.601Z,100998.13
2023-05-05T20:07:53.302Z,100995.41
2023-05-05T20:10:22.812Z,101002.53
2023-05-05T20:12:52.343Z,100995.22
2023-05-05T20:15:23.502Z,100997.69
2023-05-05T20:17:55.543Z,100993.75
2023-05-05T20:20:25.578Z,100992.47
2023-05-05T20:22:55.060Z,100989.56
2023-05-05T20:25:24.521Z,100991.63
2023-05-05T20:27:53.947Z,100987.88
2023-05-05T20:30:23.363Z,100990.16
2023-05-05T20:32:56.388Z,100991.44
2023-05-05T20:35:26.597Z,100991.44
2023-05-05T20:37:56.321Z,100994.56
2023-05-05T20:40:25.756Z,100993.31
2023-05-05T20:42:55.199Z,101001.06
2023-05-05T20:45:24.986Z,100985.75
2023-05-05T20:47:57.036Z,100977.81
2023-05-05T20:50:26.486Z,100980.09
2023-05-05T20:52:55.918Z,100985.34
2023-05-05T20:55:25.658Z,100976.75
2023-05-05T20:57:55.240Z,100975.50
2023-05-05T21:00:25.240Z,100968.97
2023-05-05T21:02:57.412Z,100954.13
2023-05-05T21:05:27.184Z,100962.28
2023-05-05T21:07:58.493Z,100945.94
2023-05-05T21:10:33.226Z,100949.69
2023-05-05T21:13:04.429Z,100947.63
2023-05-05T21:15:36.377Z,100936.50
2023-05-05T21:18:09.048Z,100935.47
2023-05-05T21:20:38.576Z,100933.97
2023-05-05T21:23:07.972Z,100930.63
2023-05-05T21:25:37.602Z,100937.75
2023-05-05T21:28:07.539Z,100945.50
2023-05-05T21:30:38.111Z,100939.19
2023-05-05T21:33:10.175Z,100943.19
2023-05-05T21:35:40.001Z,100941.72
2023-05-05T21:38:09.515Z,100936.91
2023-05-05T21:40:38.978Z,100933.56
2023-05-05T21:43:08.686Z,100936.28
2023-05-05T21:45:38.143Z,100932.94
2023-05-05T21:48:10.464Z,100921.63
2023-05-05T21:50:40.377Z,100913.03
2023-05-05T21:53:09.854Z,100924.34
2023-05-05T21:55:39.449Z,100923.69
2023-05-05T21:58:09.667Z,100918.03
2023-05-05T22:00:39.131Z,100915.13
2023-05-05T22:03:11.524Z,100918.25
2023-05-05T22:05:41.199Z,100926.03
2023-05-05T22:08:11.282Z,100920.56
2023-05-05T22:10:40.711Z,100919.72
2023-05-05T22:13:12.632Z,100922.22
2023-05-05T22:15:46.731Z,100923.28
2023-05-05T22:18:19.587Z,100923.28
2023-05-05T22:20:49.402Z,100921.63
2023-05-05T22:23:18.914Z,100927.06
2023-05-05T22:25:48.399Z,100931.25
2023-05-05T22:28:17.884Z,100934.38
2023-05-05T22:30:47.563Z,100927.25
2023-05-05T22:33:19.766Z,100933.13
2023-05-05T22:35:49.254Z,100939.38
2023-05-05T22:38:18.713Z,100936.66
2023-05-05T22:40:48.711Z,100935.41
2023-05-05T22:43:18.411Z,100929.72
2023-05-05T22:45:48.365Z,100930.38
2023-05-05T22:48:21.687Z,100931.84
2023-05-05T22:50:51.722Z,100931.84
2023-05-05T22:53:21.384Z,100927.84
2023-05-05T22:55:51.774Z,100930.75
2023-05-05T22:58:21.458Z,100930.75
2023-05-05T23:00:51.089Z,100928.22
2023-05-05T23:03:23.248Z,100932.44
2023-05-05T23:05:53.123Z,100931.19
2023-05-05T23:08:24.156Z,100932.44
2023-05-05T23:10:53.646Z,100924.91
2023-05-05T23:13:23.269Z,100927.81
2023-05-05T23:15:52.812Z,100927.16
2023-05-05T23:18:24.827Z,100929.03
2023-05-05T23:20:54.295Z,100932.44
2023-05-05T23:23:23.797Z,100935.78
2023-05-05T23:25:53.509Z,100937.47
2023-05-05T23:28:23.007Z,100949.38
2023-05-05T23:30:52.520Z,100945.81
2023-05-05T23:33:24.654Z,100954.41
2023-05-05T23:35:54.085Z,100952.31
2023-05-05T23:38:23.574Z,100955.66
2023-05-05T23:40:53.718Z,100955.06
2023-05-05T23:43:23.216Z,100957.13
2023-05-05T23:45:52.697Z,100954.41
2023-05-05T23:48:25.065Z,100962.38
2023-05-05T23:50:55.464Z,100959.66
2023-05-05T23:53:24.868Z,100966.34
2023-05-05T23:55:54.291Z,100965.28
2023-05-05T23:58:23.733Z,100960.69
